ADDS TAF Board (Experimental) INFO

IDs: Format: Expanded Condensed

Updated at: 0359 UTC 01 Oct 2014

KLAX - Los Angeles Intl, CA, US

Issued at 0250 UTC 01 Oct 2014
Time0353Z01/04Z01/05Z01/06Z01/07Z01/08Z01/09Z01/10Z01/11Z01/12Z01/13Z01/14Z01/15Z01/16Z
TypeOBSPRVLPRVLPRVLPRVLPRVLPRVLPRVLPRVLPRVLPRVLPRVLPRVLPRVL
VIS10>6>6>6>6>6>6>622222>6
CIG----------------44444--
CoverCLRSKCSKCSKCSKCSKCSKCSKCBKNBKNBKNBKNBKNFEW
FltCat--VFRVFRVFRVFRVFRVFRVFRLIFRLIFRLIFRLIFRLIFRVFR
WX----------------BRBRBRBRBR--
WDir240VRBVRBVRBVRBVRBVRBVRBVRBVRBVRBVRBVRBVRB
WSpd63333333333333
WGst----------------------------
R06/24
XWnd-2VRBVRBVRBVRBVRBVRBVRBVRBVRBVRBVRBVRBVRB
HWnd-6VRBVRBVRBVRBVRBVRBVRBVRBVRBVRBVRBVRBVRB
R07/25
XWnd-2VRBVRBVRBVRBVRBVRBVRBVRBVRBVRBVRBVRBVRB
HWnd-6VRBVRBVRBVRBVRBVRBVRBVRBVRBVRBVRBVRBVRB
Raw TAF
KLAX 010250Z 0103/0206 25008KT P6SM FEW008
  FM010400 VRB03KT P6SM SKC
  FM011100 VRB03KT 2SM BR BKN004
  FM011600 VRB03KT P6SM FEW008
  FM011900 27010KT P6SM SKC
  FM020400 VRB03KT P6SM SKC


Raw METAR
KLAX 010353Z 24006KT 10SM CLR 20/17 A2977 RMK AO2 SLP079 T02000167
KLAX 010253Z 25007KT 10SM CLR 20/17 A2977 RMK AO2 SLP080 T02000167 55001

TAF Board Legend

Hazard VFR MVFR IFR LIFR
Visibility (sm) >5 3≤X≤5 1≤X<3 <1
Ceiling (100 ft) >30 10≤X≤30 5≤X<10 <5
Wind Speed (kt) <10 10≤X<20 20≤X<30 ≥30
Wind Gust (kt) <15 15≤X<25 25≤X<35 ≥35
Weather No Wx Reported VCTS,-TS,-FZRA TS,FZRA +TS,+FZRA


Page loaded:  03:59 UTC  |   08:59 PM Pacific  |   09:59 PM Mountain  |   10:59 PM Central  |   11:59 PM Eastern

 

ADVISORIES

FORECASTS

FORECASTS

OBSERVATIONS

USER TOOLS

ABOUT US